Time;durP1;ratioP1;P1;durP2;ratioP2;P2;SDS_P1;SDS_P2;PMS_P1;PMS_P2;Temp;Humidity;BMP_temperature;BMP_pressure;BME280_temperature;BME280_humidity;BME280_pressure;Samples;Min_cycle;Max_cycle;Signal;HPM_P1;HPM_P2
2023/07/12 00:00:58;;;;;;;4.13;3.33;;;21.30;99.90;;;;;;4997812;28;20387;-69
2023/07/12 00:03:24;;;;;;;5.00;3.30;;;21.40;99.90;;;;;;4993975;28;20439;-70
2023/07/12 00:05:50;;;;;;;4.17;3.37;;;21.40;99.90;;;;;;5021191;22;20537;-69
2023/07/12 00:08:21;;;;;;;4.70;3.67;;;21.40;99.90;;;;;;5013891;28;20165;-69
2023/07/12 00:10:49;;;;;;;5.17;3.90;;;21.40;99.90;;;;;;5013659;28;20473;-69
2023/07/12 00:13:16;;;;;;;6.30;3.17;;;21.40;99.90;;;;;;5013772;28;20421;-69
2023/07/12 00:15:42;;;;;;;3.97;3.57;;;21.40;99.90;;;;;;5013547;28;20842;-69
2023/07/12 00:18:16;;;;;;;3.37;3.07;;;21.40;99.90;;;;;;5013148;28;20467;-69
2023/07/12 00:20:43;;;;;;;3.73;3.03;;;21.50;99.90;;;;;;5013684;28;20375;-68
2023/07/12 00:23:11;;;;;;;3.43;2.50;;;21.60;99.90;;;;;;5012870;28;20418;-69
2023/07/12 00:25:37;;;;;;;3.33;2.90;;;21.60;99.90;;;;;;5013576;28;20794;-69
2023/07/12 00:28:09;;;;;;;2.80;2.50;;;21.50;99.90;;;;;;5013722;28;20399;-69
2023/07/12 00:30:36;;;;;;;3.50;2.63;;;21.60;99.90;;;;;;5013572;28;20392;-69
2023/07/12 00:33:05;;;;;;;3.93;2.90;;;21.60;99.90;;;;;;5013319;28;20988;-69
2023/07/12 00:35:32;;;;;;;5.30;2.73;;;21.70;99.90;;;;;;5013554;28;20456;-70
2023/07/12 00:38:00;;;;;;;3.00;2.67;;;21.70;99.90;;;;;;5013737;28;20490;-69
2023/07/12 00:40:51;;;;;;;7.30;2.80;;;22.00;99.90;;;;;;5013333;28;20407;-69
2023/07/12 00:43:36;;;;;;;4.07;2.97;;;22.00;99.90;;;;;;5009585;28;20501;-69
2023/07/12 00:46:13;;;;;;;2.60;2.40;;;22.00;99.90;;;;;;5012793;28;20836;-69
2023/07/12 00:48:39;;;;;;;2.60;2.40;;;22.00;99.90;;;;;;5012981;28;20410;-68
2023/07/12 00:51:26;;;;;;;3.30;2.77;;;21.90;99.90;;;;;;5012940;28;20411;-69
2023/07/12 00:53:52;;;;;;;2.60;2.40;;;21.60;99.90;;;;;;4997535;28;20533;-69
2023/07/12 00:56:17;;;;;;;5.07;2.80;;;21.70;99.90;;;;;;5013304;28;20472;-69
2023/07/12 00:58:49;;;;;;;2.70;2.47;;;21.90;99.90;;;;;;5013221;28;20664;-70
2023/07/12 01:01:16;;;;;;;3.40;2.07;;;22.10;99.90;;;;;;5013321;28;20171;-70
2023/07/12 01:03:44;;;;;;;2.47;2.27;;;22.10;99.90;;;;;;5012852;28;20422;-69
2023/07/12 01:06:16;;;;;;;2.67;2.47;;;22.10;99.90;;;;;;5012865;28;20442;-69
2023/07/12 01:08:42;;;;;;;4.03;2.40;;;22.10;99.90;;;;;;5012934;28;20399;-70
2023/07/12 01:11:11;;;;;;;5.27;2.90;;;22.00;99.90;;;;;;5013366;28;20457;-69
2023/07/12 01:13:41;;;;;;;4.50;2.70;;;21.90;99.90;;;;;;5013133;28;20407;-69
2023/07/12 01:16:07;;;;;;;4.90;3.10;;;21.90;99.90;;;;;;5012678;28;20533;-69
2023/07/12 01:18:33;;;;;;;3.90;2.60;;;21.80;99.90;;;;;;5012501;28;20473;-69
2023/07/12 01:21:09;;;;;;;3.07;2.60;;;22.00;99.90;;;;;;5012585;28;20411;-69
2023/07/12 01:23:36;;;;;;;3.10;2.50;;;21.90;99.90;;;;;;5012857;28;20545;-70
2023/07/12 01:26:24;;;;;;;3.23;2.40;;;22.00;99.90;;;;;;5012546;28;20427;-70
2023/07/12 01:28:55;;;;;;;4.93;2.60;;;22.00;99.90;;;;;;5012735;28;20457;-69
2023/07/12 01:31:21;;;;;;;3.30;2.60;;;22.10;99.90;;;;;;5012402;28;20454;-68
2023/07/12 01:33:47;;;;;;;2.97;2.57;;;22.10;99.90;;;;;;5011914;28;20442;-69
2023/07/12 01:36:13;;;;;;;3.57;2.43;;;22.20;99.90;;;;;;5012530;28;20450;-69
2023/07/12 01:38:38;;;;;;;4.53;3.03;;;22.40;99.90;;;;;;5012727;28;20523;-69
2023/07/12 01:41:04;;;;;;;3.23;2.83;;;22.50;99.90;;;;;;5012776;28;20179;-69
2023/07/12 01:43:30;;;;;;;4.13;2.70;;;22.50;99.90;;;;;;5012588;28;20183;-70
2023/07/12 01:45:56;;;;;;;3.80;2.87;;;22.50;99.90;;;;;;5012580;28;20819;-70
2023/07/12 01:48:21;;;;;;;3.40;2.47;;;22.60;99.90;;;;;;5012222;28;20566;-69
2023/07/12 01:50:47;;;;;;;3.33;2.60;;;22.60;99.90;;;;;;5012415;28;20696;-69
2023/07/12 01:53:12;;;;;;;5.67;3.53;;;22.20;99.90;;;;;;5012306;28;20239;-69
2023/07/12 01:55:38;;;;;;;4.83;2.50;;;22.00;99.90;;;;;;5013188;28;20195;-70
2023/07/12 01:58:03;;;;;;;4.50;3.33;;;21.80;99.90;;;;;;5012881;28;20176;-69
2023/07/12 02:00:29;;;;;;;3.20;2.70;;;21.60;99.90;;;;;;5012391;28;20256;-69
2023/07/12 02:02:54;;;;;;;3.93;2.77;;;21.50;99.90;;;;;;5011856;28;20544;-69
2023/07/12 02:05:21;;;;;;;5.00;3.30;;;21.40;99.90;;;;;;5012040;28;20574;-69
2023/07/12 02:07:48;;;;;;;3.23;2.90;;;21.40;99.90;;;;;;5012069;28;20221;-69
2023/07/12 02:10:17;;;;;;;3.23;2.93;;;21.30;99.90;;;;;;5012470;28;20418;-69
2023/07/12 02:12:43;;;;;;;3.80;2.43;;;21.20;99.90;;;;;;5012168;28;20454;-70
2023/07/12 02:15:10;;;;;;;6.03;2.70;;;21.30;99.90;;;;;;5011991;28;20461;-69
2023/07/12 02:17:36;;;;;;;3.20;2.90;;;21.30;99.90;;;;;;5011179;28;20418;-70
2023/07/12 02:20:03;;;;;;;4.40;2.60;;;21.50;99.90;;;;;;5012061;28;20403;-69
2023/07/12 02:22:30;;;;;;;3.40;2.73;;;21.70;99.90;;;;;;5012202;28;20194;-69
2023/07/12 02:24:56;;;;;;;2.80;2.40;;;22.00;99.90;;;;;;5012322;28;20431;-70
2023/07/12 02:27:22;;;;;;;8.77;3.20;;;22.20;99.90;;;;;;5012346;28;20415;-69
2023/07/12 02:29:47;;;;;;;3.50;2.70;;;22.30;99.90;;;;;;5012354;28;20176;-70
2023/07/12 02:32:13;;;;;;;4.67;3.40;;;22.20;99.90;;;;;;5011439;28;20254;-69
2023/07/12 02:34:38;;;;;;;4.23;2.83;;;22.20;99.90;;;;;;5012075;28;20188;-69
2023/07/12 02:37:04;;;;;;;3.80;2.87;;;22.30;99.90;;;;;;5011862;28;20243;-70
2023/07/12 02:39:29;;;;;;;4.27;2.47;;;22.20;99.90;;;;;;5011984;28;20172;-69
2023/07/12 02:41:55;;;;;;;3.60;2.70;;;22.20;99.90;;;;;;5012221;28;20214;-69
2023/07/12 02:44:21;;;;;;;3.00;2.57;;;22.20;99.90;;;;;;5010946;28;20199;-69
2023/07/12 02:46:47;;;;;;;3.23;2.37;;;22.20;99.90;;;;;;5013966;28;20211;-69
2023/07/12 02:49:13;;;;;;;3.97;2.90;;;22.20;99.90;;;;;;4997714;28;20469;-69
2023/07/12 02:51:39;;;;;;;4.40;2.70;;;22.10;99.90;;;;;;5015089;28;20211;-69
2023/07/12 02:54:05;;;;;;;3.40;3.10;;;22.00;99.90;;;;;;5015610;28;20774;-69
2023/07/12 02:56:31;;;;;;;4.90;2.70;;;22.10;99.90;;;;;;5015488;28;20180;-69
2023/07/12 02:58:56;;;;;;;4.13;3.37;;;22.10;99.90;;;;;;5015001;28;20173;-69
2023/07/12 03:01:22;;;;;;;3.20;2.67;;;22.10;99.90;;;;;;5014705;28;20230;-69
2023/07/12 03:03:48;;;;;;;4.70;3.07;;;22.20;99.90;;;;;;5015069;28;20665;-69
2023/07/12 03:06:13;;;;;;;6.20;3.20;;;22.10;99.90;;;;;;5016003;28;20216;-69
2023/07/12 03:08:39;;;;;;;3.90;2.90;;;22.20;99.90;;;;;;5016301;28;20829;-69
2023/07/12 03:11:07;;;;;;;5.73;3.70;;;22.10;99.90;;;;;;5015250;28;20659;-68
2023/07/12 03:13:33;;;;;;;6.83;3.60;;;22.10;99.90;;;;;;5014966;28;20168;-69
2023/07/12 03:16:01;;;;;;;4.00;3.40;;;22.10;99.90;;;;;;5014359;28;20438;-68
2023/07/12 03:18:27;;;;;;;5.07;3.63;;;22.10;99.90;;;;;;5014863;28;20168;-70
2023/07/12 03:20:57;;;;;;;6.10;3.43;;;22.10;99.90;;;;;;5014823;28;20403;-69
2023/07/12 03:23:22;;;;;;;4.67;3.40;;;22.10;99.90;;;;;;5014783;28;20176;-69
2023/07/12 03:25:48;;;;;;;4.77;3.27;;;22.10;99.90;;;;;;5014619;28;20431;-69
2023/07/12 03:28:13;;;;;;;8.00;3.23;;;22.10;99.90;;;;;;5014919;28;20168;-69
2023/07/12 03:30:39;;;;;;;4.37;3.67;;;22.10;99.90;;;;;;5014136;28;20684;-69
2023/07/12 03:33:04;;;;;;;4.03;3.60;;;22.10;99.90;;;;;;5014571;28;20231;-69
2023/07/12 03:35:30;;;;;;;3.90;3.53;;;22.10;99.90;;;;;;5014426;28;20187;-68
2023/07/12 03:37:56;;;;;;;4.00;3.30;;;22.10;99.90;;;;;;5014610;28;20164;-69
2023/07/12 03:40:21;;;;;;;5.93;3.50;;;22.20;99.90;;;;;;5014421;28;20541;-69
2023/07/12 03:42:47;;;;;;;7.13;4.20;;;22.20;99.90;;;;;;5014416;28;20179;-69
2023/07/12 03:45:12;;;;;;;4.40;4.00;;;22.10;99.90;;;;;;5013738;28;20199;-70
2023/07/12 03:47:38;;;;;;;4.40;3.23;;;22.20;99.90;;;;;;5014544;28;20175;-68
2023/07/12 03:50:04;;;;;;;4.90;3.87;;;22.30;99.90;;;;;;5014497;28;20172;-69
2023/07/12 03:52:30;;;;;;;7.03;3.70;;;22.30;99.90;;;;;;5014617;28;20208;-69
2023/07/12 03:54:55;;;;;;;4.40;3.87;;;22.20;99.90;;;;;;5014362;28;20917;-69
2023/07/12 03:57:21;;;;;;;5.40;3.07;;;22.00;99.90;;;;;;5013358;28;20594;-69
2023/07/12 03:59:47;;;;;;;4.93;4.40;;;22.10;99.90;;;;;;5013985;28;20639;-69
2023/07/12 04:02:13;;;;;;;6.93;4.13;;;22.20;99.90;;;;;;5013697;28;20262;-69
2023/07/12 04:04:38;;;;;;;5.17;3.43;;;22.10;99.90;;;;;;5013764;28;20487;-69
2023/07/12 04:07:04;;;;;;;8.97;3.67;;;22.20;99.90;;;;;;5014136;28;20171;-69
2023/07/12 04:09:29;;;;;;;6.53;3.50;;;22.20;99.90;;;;;;5013800;28;20183;-69
2023/07/12 04:11:55;;;;;;;6.00;3.83;;;22.30;99.90;;;;;;5014227;28;20199;-70
2023/07/12 04:14:20;;;;;;;6.80;3.40;;;22.40;99.90;;;;;;5014083;28;20176;-69
2023/07/12 04:16:47;;;;;;;5.33;3.83;;;22.40;99.90;;;;;;5012384;28;20256;-70
2023/07/12 04:19:13;;;;;;;8.53;3.90;;;22.30;99.90;;;;;;5014260;28;20304;-70
2023/07/12 04:21:38;;;;;;;3.67;3.30;;;22.40;99.90;;;;;;5014464;28;20443;-69
2023/07/12 04:24:04;;;;;;;5.87;3.10;;;22.30;99.90;;;;;;5013741;28;20172;-69
2023/07/12 04:26:30;;;;;;;4.97;3.47;;;22.30;99.90;;;;;;5013506;28;20191;-69
2023/07/12 04:28:56;;;;;;;10.40;4.10;;;22.30;99.90;;;;;;5013434;28;20176;-69
2023/07/12 04:31:22;;;;;;;4.73;3.50;;;22.30;99.90;;;;;;5012851;28;20491;-69
2023/07/12 04:33:48;;;;;;;7.93;4.20;;;22.40;99.90;;;;;;5013644;28;20653;-69
2023/07/12 04:36:16;;;;;;;5.33;3.67;;;22.40;99.90;;;;;;5013485;28;20430;-69
2023/07/12 04:38:42;;;;;;;3.60;3.30;;;22.40;99.90;;;;;;5013249;28;20456;-70
2023/07/12 04:41:08;;;;;;;5.50;4.10;;;22.60;99.90;;;;;;5013117;28;20809;-69
2023/07/12 04:43:33;;;;;;;5.83;3.50;;;22.60;99.90;;;;;;5013175;28;20175;-70
2023/07/12 04:46:00;;;;;;;6.70;3.77;;;22.60;99.90;;;;;;5012898;28;20195;-70
2023/07/12 04:48:25;;;;;;;6.93;4.20;;;22.80;99.90;;;;;;5012920;28;20179;-69
2023/07/12 04:50:52;;;;;;;4.90;3.77;;;22.90;99.90;;;;;;5013282;28;20521;-69
2023/07/12 04:53:19;;;;;;;5.60;4.20;;;22.70;99.90;;;;;;5012995;28;20258;-70
2023/07/12 04:55:45;;;;;;;5.03;3.07;;;22.90;99.90;;;;;;5012616;28;20443;-69
2023/07/12 04:58:11;;;;;;;4.90;4.00;;;22.80;99.90;;;;;;5012862;28;20465;-69
2023/07/12 05:00:37;;;;;;;4.50;3.93;;;22.90;99.90;;;;;;5012640;28;20407;-69
2023/07/12 05:03:02;;;;;;;6.40;4.27;;;23.20;99.90;;;;;;5012799;28;20180;-70
2023/07/12 05:05:28;;;;;;;4.47;3.53;;;23.30;99.90;;;;;;5012676;28;20216;-69
2023/07/12 05:07:53;;;;;;;8.47;3.90;;;23.20;99.90;;;;;;5012754;28;20184;-70
2023/07/12 05:10:19;;;;;;;6.20;3.83;;;23.20;99.90;;;;;;5012680;28;20660;-69
2023/07/12 05:12:45;;;;;;;5.07;4.23;;;23.20;99.90;;;;;;5014604;28;20250;-70
2023/07/12 05:15:11;;;;;;;8.23;4.43;;;23.30;99.90;;;;;;5012918;28;20192;-70
2023/07/12 05:17:38;;;;;;;7.20;4.87;;;23.50;99.90;;;;;;5011201;28;20255;-69
2023/07/12 05:20:05;;;;;;;5.17;4.00;;;23.50;99.90;;;;;;5012455;28;20486;-69
2023/07/12 05:22:31;;;;;;;8.80;4.90;;;23.60;99.90;;;;;;5012383;28;20418;-70
2023/07/12 05:24:58;;;;;;;8.30;5.37;;;23.60;99.90;;;;;;5012515;28;20430;-70
2023/07/12 05:27:24;;;;;;;5.27;4.40;;;23.60;99.90;;;;;;5012427;28;20571;-70
2023/07/12 05:29:49;;;;;;;4.70;4.30;;;23.70;99.90;;;;;;5012453;28;20909;-69
2023/07/12 05:32:15;;;;;;;8.40;4.40;;;23.70;99.90;;;;;;5011919;28;20485;-69
2023/07/12 05:34:41;;;;;;;11.40;5.50;;;23.70;99.90;;;;;;4994423;28;20192;-69
2023/07/12 05:37:07;;;;;;;8.63;5.00;;;23.70;99.90;;;;;;5012027;28;20164;-69
2023/07/12 05:39:33;;;;;;;5.77;4.60;;;23.80;99.90;;;;;;4994457;28;20918;-69
2023/07/12 05:41:58;;;;;;;4.90;4.40;;;23.80;99.90;;;;;;5011647;28;20464;-69
2023/07/12 05:44:24;;;;;;;9.83;5.47;;;23.90;99.90;;;;;;5012039;28;20160;-69
2023/07/12 05:46:50;;;;;;;7.53;5.37;;;24.00;99.90;;;;;;5011924;28;20168;-69
2023/07/12 05:49:15;;;;;;;7.23;5.37;;;23.80;99.90;;;;;;5009002;28;20169;-69
2023/07/12 05:51:42;;;;;;;5.23;4.73;;;23.80;99.90;;;;;;5011663;28;20188;-69
2023/07/12 05:54:07;;;;;;;7.70;5.17;;;23.90;99.90;;;;;;5012370;28;20164;-69
2023/07/12 05:56:33;;;;;;;5.20;4.70;;;23.80;99.90;;;;;;5011899;28;20514;-69
2023/07/12 05:58:58;;;;;;;6.53;4.53;;;23.80;99.90;;;;;;5011785;28;20199;-69
2023/07/12 06:01:26;;;;;;;8.60;5.03;;;23.90;99.90;;;;;;5011763;28;20211;-69
2023/07/12 06:03:51;;;;;;;7.93;5.30;;;24.00;99.90;;;;;;5011649;28;20650;-69
2023/07/12 06:06:17;;;;;;;6.73;5.10;;;24.00;99.90;;;;;;5009520;22;20515;-69
2023/07/12 06:08:43;;;;;;;9.27;6.03;;;24.10;99.90;;;;;;4973954;28;20158;-69
2023/07/12 06:11:08;;;;;;;7.03;5.60;;;24.00;99.90;;;;;;4973705;28;20632;-69
2023/07/12 06:13:34;;;;;;;5.97;4.47;;;24.00;99.90;;;;;;4973651;28;20252;-69
2023/07/12 06:16:01;;;;;;;6.43;5.83;;;24.00;99.90;;;;;;4974055;28;20192;-70
2023/07/12 06:18:30;;;;;;;8.80;5.70;;;24.10;99.90;;;;;;4955186;28;20209;-70
2023/07/12 06:20:57;;;;;;;6.20;5.10;;;24.20;99.90;;;;;;4956121;28;20432;-70
2023/07/12 06:23:23;;;;;;;6.73;5.47;;;24.20;99.90;;;;;;4958167;28;20861;-70
2023/07/12 06:25:49;;;;;;;6.53;5.47;;;24.30;99.90;;;;;;4958315;28;20476;-70
2023/07/12 06:28:15;;;;;;;8.60;4.97;;;24.30;99.90;;;;;;4958252;29;20413;-70
2023/07/12 06:30:40;;;;;;;5.83;5.23;;;24.50;99.90;;;;;;4958007;29;20409;-71
2023/07/12 06:33:06;;;;;;;6.70;5.23;;;24.70;99.90;;;;;;4957547;29;20194;-70
2023/07/12 06:35:32;;;;;;;7.70;4.97;;;24.90;99.90;;;;;;4958149;28;20613;-71
2023/07/12 06:37:57;;;;;;;10.33;5.57;;;24.80;99.90;;;;;;4940796;29;20196;-70
2023/07/12 06:40:23;;;;;;;10.00;4.67;;;24.90;99.90;;;;;;4958143;29;20234;-70
2023/07/12 06:42:49;;;;;;;8.30;5.30;;;25.10;99.90;;;;;;4957936;28;20236;-69
2023/07/12 06:45:15;;;;;;;9.00;4.90;;;25.20;99.90;;;;;;4958091;28;20198;-70
2023/07/12 06:47:40;;;;;;;9.50;5.17;;;25.30;99.90;;;;;;4957336;28;20687;-70
2023/07/12 06:50:06;;;;;;;6.27;4.87;;;25.60;99.90;;;;;;4974855;28;20711;-70
2023/07/12 06:52:32;;;;;;;8.20;4.47;;;25.70;99.90;;;;;;4976821;28;20201;-70
2023/07/12 06:54:57;;;;;;;7.40;5.43;;;25.80;99.90;;;;;;4976852;28;20433;-69
2023/07/12 06:57:23;;;;;;;6.23;4.93;;;25.80;99.90;;;;;;4977278;28;20644;-69
2023/07/12 06:59:49;;;;;;;7.87;5.20;;;25.90;99.90;;;;;;4976742;28;20177;-71
2023/07/12 07:02:15;;;;;;;5.60;4.80;;;26.10;99.90;;;;;;4976699;28;20573;-71
2023/07/12 07:04:41;;;;;;;7.27;5.67;;;26.10;99.90;;;;;;4976452;28;20519;-70
2023/07/12 07:07:06;;;;;;;6.33;5.23;;;26.00;99.90;;;;;;4976499;28;20427;-70
2023/07/12 07:09:38;;;;;;;6.70;5.30;;;26.20;99.90;;;;;;4976660;28;20252;-70
2023/07/12 07:12:06;;;;;;;5.43;4.50;;;26.20;99.90;;;;;;4970804;28;20559;-70
2023/07/12 07:14:32;;;;;;;5.13;4.30;;;26.10;99.90;;;;;;4957366;29;20425;-70
2023/07/12 07:16:58;;;;;;;9.10;4.77;;;26.10;99.90;;;;;;4956910;28;20822;-70
2023/07/12 07:19:24;;;;;;;5.77;4.10;;;26.10;99.90;;;;;;4957231;28;20417;-70
2023/07/12 07:21:50;;;;;;;7.00;4.50;;;25.90;99.90;;;;;;4957286;29;20174;-70
2023/07/12 07:24:17;;;;;;;5.90;4.23;;;25.70;99.90;;;;;;4957402;28;20233;-70
2023/07/12 07:26:44;;;;;;;4.67;4.20;;;25.80;99.90;;;;;;4957284;28;20442;-70
2023/07/12 07:29:10;;;;;;;6.03;4.70;;;25.90;99.90;;;;;;4957196;29;20504;-70
2023/07/12 07:31:35;;;;;;;9.47;4.33;;;25.80;99.90;;;;;;4956794;28;21027;-70
2023/07/12 07:34:01;;;;;;;6.50;4.00;;;25.80;99.90;;;;;;4956920;29;20877;-70
2023/07/12 07:36:27;;;;;;;6.00;4.17;;;25.90;99.90;;;;;;4956930;28;20668;-70
2023/07/12 07:38:52;;;;;;;6.50;4.20;;;25.70;99.90;;;;;;4956805;29;20192;-69
2023/07/12 07:41:19;;;;;;;9.63;5.57;;;25.70;99.90;;;;;;4957074;29;20170;-70
2023/07/12 07:43:45;;;;;;;5.30;4.60;;;25.70;99.90;;;;;;4956697;28;20170;-68
2023/07/12 07:46:12;;;;;;;5.33;4.13;;;25.80;99.90;;;;;;4956781;28;20508;-69
2023/07/12 07:48:38;;;;;;;6.03;4.10;;;26.00;99.90;;;;;;4956195;28;20398;-69
2023/07/12 07:51:06;;;;;;;4.30;3.63;;;26.10;99.90;;;;;;4956854;28;20413;-71
2023/07/12 07:53:31;;;;;;;9.97;4.50;;;25.90;99.90;;;;;;4956722;29;20174;-69
2023/07/12 07:55:57;;;;;;;6.80;4.30;;;25.90;99.90;;;;;;4956816;28;20476;-69
2023/07/12 07:58:23;;;;;;;4.33;3.93;;;26.00;99.90;;;;;;4956412;29;20175;-69
2023/07/12 08:00:50;;;;;;;5.07;3.80;;;26.20;99.90;;;;;;4956692;28;20205;-69
2023/07/12 08:03:15;;;;;;;5.27;3.77;;;26.20;99.90;;;;;;4956095;28;20186;-69
2023/07/12 08:05:41;;;;;;;6.07;4.70;;;26.20;99.90;;;;;;4956319;28;20449;-68
2023/07/12 08:08:07;;;;;;;5.67;4.00;;;26.30;99.90;;;;;;4956358;28;20220;-69
2023/07/12 08:10:33;;;;;;;6.40;4.57;;;26.30;99.90;;;;;;4956958;28;20550;-69
2023/07/12 08:12:59;;;;;;;6.80;4.40;;;26.40;99.90;;;;;;4958520;28;20457;-69
2023/07/12 08:15:26;;;;;;;5.40;4.60;;;26.50;99.90;;;;;;4956101;28;20190;-69
2023/07/12 08:17:52;;;;;;;4.80;4.40;;;26.50;99.90;;;;;;4944057;29;20414;-69
2023/07/12 08:20:18;;;;;;;5.20;3.90;;;26.50;99.90;;;;;;4956041;28;20421;-69
2023/07/12 08:22:44;;;;;;;6.57;4.70;;;26.30;99.90;;;;;;4956155;29;20496;-69
2023/07/12 08:25:10;;;;;;;5.43;4.60;;;26.40;99.90;;;;;;4956079;28;20438;-69
2023/07/12 08:27:36;;;;;;;5.50;4.70;;;26.40;99.90;;;;;;4956231;28;20842;-69
2023/07/12 08:30:02;;;;;;;6.97;3.90;;;26.50;99.90;;;;;;4956165;28;20418;-70
2023/07/12 08:32:30;;;;;;;6.63;3.90;;;26.70;99.90;;;;;;4955410;29;20201;-69
2023/07/12 08:34:56;;;;;;;4.27;3.50;;;26.70;99.90;;;;;;4955908;28;20469;-69
2023/07/12 08:37:23;;;;;;;6.80;3.83;;;26.70;99.90;;;;;;4956082;28;20413;-69
2023/07/12 08:39:49;;;;;;;5.90;4.37;;;26.70;99.90;;;;;;4956083;28;20417;-68
2023/07/12 08:42:20;;;;;;;4.53;3.80;;;26.60;99.90;;;;;;4955746;28;20405;-70
2023/07/12 08:44:46;;;;;;;7.40;4.17;;;26.70;99.90;;;;;;4955203;28;20539;-69
2023/07/12 08:47:19;;;;;;;5.33;4.60;;;26.80;99.90;;;;;;4955878;28;20427;-70
2023/07/12 08:49:44;;;;;;;7.20;4.00;;;26.80;99.90;;;;;;4955903;29;20173;-70
2023/07/12 08:52:16;;;;;;;5.60;5.00;;;26.90;99.90;;;;;;4955637;28;20469;-69
2023/07/12 08:54:44;;;;;;;4.77;3.57;;;27.10;99.90;;;;;;4955900;28;20285;-69
2023/07/12 08:57:16;;;;;;;6.90;4.57;;;27.00;99.90;;;;;;4946336;28;20425;-70
2023/07/12 08:59:44;;;;;;;5.80;4.20;;;27.00;99.90;;;;;;4974672;28;20408;-70
2023/07/12 09:02:23;;;;;;;5.77;4.10;;;27.10;99.90;;;;;;4975279;28;20937;-69
2023/07/12 09:04:50;;;;;;;5.53;4.67;;;27.00;99.90;;;;;;4974365;28;20413;-69
2023/07/12 09:07:27;;;;;;;5.80;4.20;;;27.10;99.90;;;;;;4974963;28;20401;-69
2023/07/12 09:09:55;;;;;;;6.30;3.23;;;27.50;99.90;;;;;;4975019;28;20876;-70
2023/07/12 09:12:32;;;;;;;4.57;3.30;;;27.50;99.90;;;;;;4974267;28;20484;-70
2023/07/12 09:15:01;;;;;;;6.87;4.10;;;27.70;99.90;;;;;;4974595;28;20511;-70
2023/07/12 09:17:30;;;;;;;5.33;3.77;;;27.70;99.90;;;;;;4964854;28;20428;-71
2023/07/12 09:19:56;;;;;;;3.93;3.53;;;27.90;99.90;;;;;;4955327;28;20406;-69
2023/07/12 09:22:22;;;;;;;4.60;3.47;;;28.10;99.90;;;;;;4954521;29;20435;-70
2023/07/12 09:24:53;;;;;;;5.40;4.10;;;27.90;99.90;;;;;;4955223;28;20425;-71
2023/07/12 09:27:23;;;;;;;4.40;4.00;;;27.90;99.90;;;;;;4955057;29;20420;-71
2023/07/12 09:29:59;;;;;;;4.37;3.67;;;27.90;99.90;;;;;;4955326;29;20426;-70
2023/07/12 09:32:33;;;;;;;3.90;3.40;;;28.20;99.90;;;;;;4954666;29;20850;-70
2023/07/12 09:35:01;;;;;;;7.07;3.93;;;28.10;99.90;;;;;;4955058;28;20572;-70
2023/07/12 09:37:28;;;;;;;8.53;3.73;;;28.20;99.90;;;;;;4955080;28;20405;-71
2023/07/12 09:39:56;;;;;;;4.50;3.50;;;28.20;99.90;;;;;;4955114;28;20492;-71
2023/07/12 09:42:23;;;;;;;3.90;2.87;;;28.30;99.90;;;;;;4954788;28;20414;-71
2023/07/12 09:44:49;;;;;;;4.37;3.30;;;28.60;99.90;;;;;;4954867;28;20616;-70
2023/07/12 09:47:29;;;;;;;4.80;3.10;;;28.70;99.90;;;;;;4954532;28;20520;-71
2023/07/12 09:50:47;;;;;;;3.97;3.57;;;28.70;99.90;;;;;;4954704;29;20425;-70
2023/07/12 09:53:19;;;;;;;4.97;3.33;;;28.80;99.80;;;;;;4922459;28;20477;-70
2023/07/12 09:55:56;;;;;;;4.20;3.37;;;28.70;99.80;;;;;;4955941;28;20936;-71
2023/07/12 09:58:35;;;;;;;6.50;4.20;;;28.70;99.10;;;;;;4958817;29;20401;-71
2023/07/12 10:01:46;;;;;;;5.80;3.70;;;28.60;99.70;;;;;;4959109;29;20548;-71
2023/07/12 10:04:30;;;;;;;4.23;3.30;;;28.60;99.70;;;;;;4955624;29;20425;-70
2023/07/12 10:06:56;;;;;;;4.57;3.33;;;28.70;99.20;;;;;;4958373;28;20508;-71
2023/07/12 10:09:31;;;;;;;4.23;2.90;;;28.90;99.90;;;;;;4958435;29;20801;-70
2023/07/12 10:12:28;;;;;;;4.20;3.47;;;29.00;99.10;;;;;;4960826;28;20576;-70
2023/07/12 10:14:55;;;;;;;6.80;4.23;;;29.00;98.10;;;;;;4958762;28;20421;-71
2023/07/12 10:17:34;;;;;;;8.17;4.30;;;29.00;98.00;;;;;;4957222;28;20928;-70
2023/07/12 10:20:01;;;;;;;4.23;3.50;;;29.20;97.60;;;;;;4958213;29;20421;-69
2023/07/12 10:22:34;;;;;;;3.00;2.70;;;29.40;98.20;;;;;;4958410;29;20942;-70
2023/07/12 10:25:06;;;;;;;4.97;3.70;;;29.50;97.40;;;;;;4958427;28;20433;-70
2023/07/12 10:27:37;;;;;;;4.23;3.83;;;29.50;96.90;;;;;;4958537;29;20389;-70
2023/07/12 10:30:14;;;;;;;3.83;3.20;;;29.60;97.10;;;;;;4958255;29;20425;-70
2023/07/12 10:32:46;;;;;;;4.83;4.07;;;29.90;96.20;;;;;;4957340;29;20452;-70
2023/07/12 10:35:27;;;;;;;5.60;4.00;;;29.80;95.80;;;;;;4958429;28;20430;-70
2023/07/12 10:38:01;;;;;;;5.57;3.27;;;29.70;96.10;;;;;;4958644;29;20424;-71
2023/07/12 10:40:35;;;;;;;4.60;3.90;;;29.80;96.80;;;;;;4958344;29;20768;-71
2023/07/12 10:43:10;;;;;;;3.70;3.30;;;29.90;95.70;;;;;;4958474;29;20397;-71
2023/07/12 10:45:38;;;;;;;7.70;3.40;;;30.00;96.00;;;;;;4958443;28;20431;-71
2023/07/12 10:48:06;;;;;;;6.20;3.90;;;29.90;95.10;;;;;;4957188;28;20429;-71
2023/07/12 10:50:45;;;;;;;5.33;3.60;;;30.10;96.40;;;;;;4957661;28;20434;-71
2023/07/12 10:53:25;;;;;;;4.00;3.50;;;30.00;95.20;;;;;;4957781;29;20446;-70
2023/07/12 10:56:03;;;;;;;6.10;3.97;;;30.00;94.80;;;;;;4957686;28;20495;-70
2023/07/12 10:59:04;;;;;;;4.13;3.73;;;29.90;94.50;;;;;;4957554;28;20433;-71
2023/07/12 11:01:46;;;;;;;5.50;4.23;;;29.90;94.50;;;;;;4957948;28;20988;-71
2023/07/12 11:04:25;;;;;;;5.20;3.70;;;30.10;94.10;;;;;;4938382;29;20398;-70
2023/07/12 11:07:06;;;;;;;6.73;4.23;;;30.40;94.70;;;;;;4937651;29;20528;-70
2023/07/12 11:10:02;;;;;;;6.70;4.00;;;30.80;92.60;;;;;;4938640;29;20438;-70
2023/07/12 11:12:30;;;;;;;4.03;3.63;;;30.70;92.20;;;;;;4936971;29;20878;-71
2023/07/12 11:15:21;;;;;;;5.37;4.00;;;30.60;92.50;;;;;;4938044;29;21004;-70
2023/07/12 11:17:53;;;;;;;4.27;3.87;;;30.60;92.80;;;;;;4948314;28;20496;-70
2023/07/12 11:20:24;;;;;;;4.53;3.93;;;30.60;91.90;;;;;;4957757;29;20830;-70
2023/07/12 11:22:55;;;;;;;4.70;4.20;;;30.80;93.50;;;;;;4957362;29;20905;-70
2023/07/12 11:25:27;;;;;;;6.00;4.10;;;31.30;91.90;;;;;;4957016;28;20931;-70
2023/07/12 11:27:53;;;;;;;6.63;4.67;;;31.10;91.00;;;;;;4957461;29;20428;-70
2023/07/12 11:30:26;;;;;;;4.93;4.30;;;30.70;91.80;;;;;;4957068;28;20437;-70
2023/07/12 11:33:12;;;;;;;5.20;4.07;;;31.10;91.30;;;;;;4956508;29;20214;-69
2023/07/12 11:35:53;;;;;;;5.50;3.97;;;31.50;90.40;;;;;;4957296;28;20489;-70
2023/07/12 11:38:31;;;;;;;4.70;4.17;;;32.70;86.70;;;;;;4957101;29;20421;-70
2023/07/12 11:41:01;;;;;;;6.27;3.97;;;33.90;85.50;;;;;;4957106;29;20417;-70
2023/07/12 11:43:32;;;;;;;5.10;4.50;;;34.90;78.40;;;;;;4956904;29;20469;-71
2023/07/12 11:45:59;;;;;;;4.87;3.93;;;36.10;76.20;;;;;;4940106;29;20889;-70
2023/07/12 11:48:29;;;;;;;4.50;4.10;;;36.10;71.00;;;;;;4955592;28;20960;-71
2023/07/12 11:50:58;;;;;;;4.17;3.80;;;35.90;71.40;;;;;;4956976;29;20394;-71
2023/07/12 11:53:24;;;;;;;4.07;3.57;;;36.30;69.90;;;;;;4956587;28;20465;-70
2023/07/12 11:55:50;;;;;;;6.57;4.07;;;36.50;68.30;;;;;;4956396;28;20434;-70
2023/07/12 11:58:20;;;;;;;6.23;3.80;;;34.90;69.90;;;;;;4956574;28;20421;-71
2023/07/12 12:00:47;;;;;;;5.20;4.20;;;33.40;73.90;;;;;;4956520;28;20166;-70
2023/07/12 12:03:14;;;;;;;4.90;3.73;;;32.50;75.40;;;;;;4958339;28;20405;-70
2023/07/12 12:05:41;;;;;;;11.37;4.40;;;32.80;75.10;;;;;;4937833;29;20560;-70
2023/07/12 12:08:09;;;;;;;3.63;3.33;;;32.70;75.00;;;;;;4937480;29;20418;-69
2023/07/12 12:10:38;;;;;;;5.47;4.00;;;31.80;75.40;;;;;;4937253;29;20415;-70
2023/07/12 12:13:19;;;;;;;6.70;4.37;;;31.30;75.20;;;;;;4936950;29;20931;-71
2023/07/12 12:15:50;;;;;;;4.17;3.77;;;31.80;75.70;;;;;;4936988;29;20959;-70
2023/07/12 12:18:18;;;;;;;5.20;3.90;;;32.10;75.90;;;;;;4949992;28;20433;-70
2023/07/12 12:21:04;;;;;;;4.70;4.20;;;32.70;74.40;;;;;;4956312;29;20425;-71
2023/07/12 12:23:35;;;;;;;4.97;3.40;;;33.70;72.30;;;;;;4956437;29;20416;-71
2023/07/12 12:26:32;;;;;;;5.40;4.37;;;35.30;67.30;;;;;;4956235;28;20433;-71
2023/07/12 12:29:01;;;;;;;5.17;4.70;;;35.30;66.60;;;;;;4943370;29;20440;-70
2023/07/12 12:31:29;;;;;;;5.50;5.00;;;35.40;62.80;;;;;;4956416;29;20880;-70
2023/07/12 12:34:18;;;;;;;4.60;3.80;;;35.50;64.60;;;;;;4955484;28;20414;-70
2023/07/12 12:37:28;;;;;;;4.60;4.10;;;35.70;63.40;;;;;;4956164;28;20457;-70
2023/07/12 12:40:04;;;;;;;5.47;3.60;;;35.40;66.90;;;;;;4896885;29;20493;-70
2023/07/12 12:42:31;;;;;;;5.37;4.10;;;35.90;66.80;;;;;;4896750;29;20461;-71
2023/07/12 12:44:57;;;;;;;5.70;3.90;;;35.40;66.70;;;;;;4931120;28;20532;-71
2023/07/12 12:47:30;;;;;;;4.87;3.93;;;34.50;69.00;;;;;;4955113;28;20437;-71
2023/07/12 12:49:59;;;;;;;7.17;4.40;;;35.30;65.30;;;;;;4955571;29;20405;-71
2023/07/12 12:52:36;;;;;;;7.83;4.20;;;35.70;63.90;;;;;;4955517;29;20863;-70
2023/07/12 12:55:08;;;;;;;6.97;3.83;;;36.30;59.50;;;;;;4955725;28;20464;-72